Time;durP1;ratioP1;P1;durP2;ratioP2;P2;SDS_P1;SDS_P2;PMS_P1;PMS_P2;Temp;Humidity;BMP_temperature;BMP_pressure;BME280_temperature;BME280_humidity;BME280_pressure;Samples;Min_cycle;Max_cycle;Signal;HPM_P1;HPM_P2
2023/09/12 00:01:08;;;;;;;2.92;1.40;;;21.90;1.00;;;;;;5115936;28;20420;-63
2023/09/12 00:03:36;;;;;;;4.15;2.20;;;21.90;1.00;;;;;;5114169;28;20425;-63
2023/09/12 00:06:04;;;;;;;5.10;1.67;;;21.90;1.00;;;;;;5116635;28;20424;-64
2023/09/12 00:08:31;;;;;;;3.50;1.80;;;21.90;1.00;;;;;;5116818;28;20431;-63
2023/09/12 00:11:02;;;;;;;4.90;1.90;;;21.90;1.00;;;;;;5117317;28;20422;-62
2023/09/12 00:13:30;;;;;;;2.28;1.60;;;21.90;1.00;;;;;;5116579;28;20434;-64
2023/09/12 00:15:59;;;;;;;3.00;2.08;;;21.80;40.20;;;;;;5116094;28;20878;-63
2023/09/12 00:18:26;;;;;;;2.30;1.90;;;21.80;99.90;;;;;;5114875;28;20490;-64
2023/09/12 00:20:54;;;;;;;2.50;1.60;;;21.80;99.90;;;;;;5113489;28;20457;-63
2023/09/12 00:23:23;;;;;;;4.05;1.77;;;21.80;99.90;;;;;;5113594;28;20428;-64
2023/09/12 00:25:51;;;;;;;3.53;1.60;;;21.80;99.90;;;;;;5113931;28;20466;-62
2023/09/12 00:28:18;;;;;;;2.72;2.38;;;21.80;99.90;;;;;;5114176;28;20431;-63
2023/09/12 00:30:45;;;;;;;3.72;2.00;;;21.80;97.10;;;;;;5113283;28;20822;-64
2023/09/12 00:33:14;;;;;;;3.90;2.10;;;21.70;99.90;;;;;;5114421;28;20824;-63
2023/09/12 00:35:41;;;;;;;2.63;1.60;;;21.70;99.90;;;;;;5115354;28;20435;-62
2023/09/12 00:38:10;;;;;;;2.83;1.73;;;21.70;99.90;;;;;;5117031;28;20734;-63
2023/09/12 00:40:37;;;;;;;3.90;1.90;;;21.70;99.90;;;;;;5116475;28;20475;-63
2023/09/12 00:43:05;;;;;;;3.20;1.60;;;21.60;99.90;;;;;;5116155;28;20432;-63
2023/09/12 00:45:32;;;;;;;2.30;1.60;;;21.60;99.90;;;;;;5115690;28;20420;-64
2023/09/12 00:48:00;;;;;;;2.95;1.90;;;21.50;99.90;;;;;;5117247;28;20523;-63
2023/09/12 00:50:30;;;;;;;3.05;2.13;;;21.60;99.90;;;;;;5116069;28;20526;-63
2023/09/12 00:52:58;;;;;;;3.47;2.00;;;21.50;99.90;;;;;;5116147;28;20424;-63
2023/09/12 00:55:25;;;;;;;3.45;2.13;;;21.60;99.90;;;;;;5115000;28;20442;-63
2023/09/12 00:57:54;;;;;;;2.70;1.77;;;21.60;99.90;;;;;;5116074;28;20855;-63
2023/09/12 01:00:21;;;;;;;4.90;2.15;;;21.60;99.90;;;;;;5115672;28;20522;-64
2023/09/12 01:02:51;;;;;;;3.50;2.60;;;21.50;99.90;;;;;;5116256;28;20835;-62
2023/09/12 01:05:18;;;;;;;3.10;2.00;;;21.50;99.90;;;;;;5114888;28;20473;-64
2023/09/12 01:07:48;;;;;;;4.57;2.13;;;21.40;99.90;;;;;;5115953;28;20418;-64
2023/09/12 01:10:15;;;;;;;3.20;2.10;;;21.40;99.90;;;;;;5113375;28;20426;-62
2023/09/12 01:12:42;;;;;;;4.97;1.80;;;21.40;99.90;;;;;;5116104;28;20444;-64
2023/09/12 01:15:13;;;;;;;2.85;2.00;;;21.40;99.90;;;;;;5115186;28;20534;-63
2023/09/12 01:17:42;;;;;;;2.60;1.90;;;21.50;99.90;;;;;;5114984;28;20460;-64
2023/09/12 01:20:12;;;;;;;2.50;2.28;;;21.50;99.90;;;;;;5115289;28;20424;-63
2023/09/12 01:23:01;;;;;;;4.20;2.28;;;21.50;99.90;;;;;;5116301;28;20481;-63
2023/09/12 01:26:10;;;;;;;2.80;2.30;;;21.60;99.90;;;;;;5108006;28;20547;-63
2023/09/12 01:28:43;;;;;;;3.67;2.15;;;21.50;99.90;;;;;;5094140;28;20439;-63
2023/09/12 01:31:11;;;;;;;3.88;1.75;;;21.50;99.90;;;;;;5081964;28;20450;-64
2023/09/12 01:33:38;;;;;;;3.45;2.17;;;21.40;99.90;;;;;;5084763;28;20494;-63
2023/09/12 01:36:06;;;;;;;4.68;1.85;;;21.40;99.90;;;;;;5114743;28;20813;-63
2023/09/12 01:38:33;;;;;;;2.97;1.92;;;21.40;99.90;;;;;;5113860;28;20463;-64
2023/09/12 01:41:00;;;;;;;3.42;1.80;;;21.40;99.90;;;;;;5115435;28;20517;-63
2023/09/12 01:43:28;;;;;;;3.00;1.77;;;21.40;99.90;;;;;;5114581;28;20435;-64
2023/09/12 01:46:00;;;;;;;3.65;2.30;;;21.30;99.90;;;;;;5115915;28;20431;-64
2023/09/12 01:48:34;;;;;;;3.95;2.20;;;21.30;99.90;;;;;;5114557;28;20438;-64
2023/09/12 01:51:03;;;;;;;2.20;1.70;;;21.30;99.90;;;;;;5114880;28;20427;-64
2023/09/12 01:53:30;;;;;;;3.28;2.15;;;21.30;99.90;;;;;;5113847;28;20514;-63
2023/09/12 01:55:58;;;;;;;2.90;1.80;;;21.20;99.90;;;;;;5115255;28;20420;-63
2023/09/12 01:58:27;;;;;;;3.00;2.17;;;21.20;1.00;;;;;;5109979;28;20437;-63
2023/09/12 02:00:54;;;;;;;4.95;2.13;;;21.20;1.00;;;;;;5110672;28;20417;-63
2023/09/12 02:03:23;;;;;;;2.70;2.10;;;21.20;1.00;;;;;;5104371;28;20432;-63
2023/09/12 02:05:50;;;;;;;3.70;2.40;;;21.20;1.00;;;;;;5107080;28;20423;-64
2023/09/12 02:08:17;;;;;;;4.68;2.83;;;21.20;1.00;;;;;;5113404;28;20598;-64
2023/09/12 02:10:44;;;;;;;3.97;1.90;;;21.20;1.00;;;;;;5114715;28;20494;-63
2023/09/12 02:13:11;;;;;;;3.03;1.90;;;21.20;1.00;;;;;;5112342;28;20422;-63
2023/09/12 02:15:39;;;;;;;4.20;1.70;;;21.10;99.90;;;;;;5108033;28;20899;-63
2023/09/12 02:18:06;;;;;;;2.20;1.80;;;21.10;99.90;;;;;;5105412;28;20875;-64
2023/09/12 02:20:38;;;;;;;3.10;1.90;;;21.10;99.90;;;;;;5115596;28;20424;-63
2023/09/12 02:23:05;;;;;;;3.67;2.53;;;21.10;99.90;;;;;;5113746;28;20523;-63
2023/09/12 02:25:33;;;;;;;2.60;1.90;;;21.10;1.00;;;;;;5115619;28;20515;-64
2023/09/12 02:28:00;;;;;;;3.45;1.75;;;21.00;1.00;;;;;;5114078;28;20458;-63
2023/09/12 02:30:27;;;;;;;4.78;1.90;;;20.90;1.00;;;;;;5114818;28;20511;-63
2023/09/12 02:32:54;;;;;;;2.65;1.98;;;20.90;1.00;;;;;;5104854;28;20428;-64
2023/09/12 02:35:21;;;;;;;3.60;2.13;;;20.90;1.00;;;;;;5106589;28;20822;-63
2023/09/12 02:37:50;;;;;;;3.90;1.65;;;20.90;1.00;;;;;;5114412;28;20922;-63
2023/09/12 02:40:18;;;;;;;3.38;2.00;;;20.90;1.00;;;;;;5113752;28;20415;-63
2023/09/12 02:42:45;;;;;;;2.80;1.90;;;21.00;1.00;;;;;;5113727;28;20427;-63
2023/09/12 02:45:12;;;;;;;2.65;1.70;;;21.10;1.00;;;;;;5114628;28;20443;-63
2023/09/12 02:47:39;;;;;;;3.20;2.40;;;21.10;99.90;;;;;;5114265;28;20434;-63
2023/09/12 02:50:07;;;;;;;2.33;2.10;;;21.10;99.90;;;;;;5114670;28;20442;-63
2023/09/12 02:52:35;;;;;;;2.95;1.73;;;21.00;99.90;;;;;;5114966;28;20442;-64
2023/09/12 02:55:04;;;;;;;3.13;1.90;;;21.00;99.90;;;;;;5114193;28;20719;-63
2023/09/12 02:57:31;;;;;;;3.83;2.30;;;21.00;1.00;;;;;;5114063;28;20511;-63
2023/09/12 02:59:58;;;;;;;4.65;1.83;;;21.00;1.00;;;;;;5114217;28;20428;-63
2023/09/12 03:02:25;;;;;;;3.80;1.83;;;21.00;1.00;;;;;;5114469;28;20424;-63
2023/09/12 03:04:52;;;;;;;3.35;2.13;;;21.00;1.00;;;;;;5112801;28;20432;-64
2023/09/12 03:07:19;;;;;;;3.22;2.13;;;21.00;1.00;;;;;;5114099;28;20404;-63
2023/09/12 03:09:49;;;;;;;4.10;2.40;;;20.90;1.00;;;;;;5112717;28;20430;-62
2023/09/12 03:12:18;;;;;;;4.28;2.20;;;20.90;1.00;;;;;;5113642;28;20467;-62
2023/09/12 03:14:45;;;;;;;3.13;2.00;;;20.90;1.00;;;;;;5113396;28;20428;-61
2023/09/12 03:17:12;;;;;;;3.10;2.05;;;20.90;1.00;;;;;;5114206;28;20496;-61
2023/09/12 03:19:39;;;;;;;2.83;2.53;;;20.80;1.00;;;;;;5111470;28;20519;-62
2023/09/12 03:22:06;;;;;;;5.00;1.90;;;20.80;1.00;;;;;;5115081;28;20419;-61
2023/09/12 03:24:34;;;;;;;4.82;2.53;;;20.80;1.00;;;;;;5116111;28;20517;-62
2023/09/12 03:27:01;;;;;;;4.10;2.00;;;20.70;1.00;;;;;;5116859;28;20524;-62
2023/09/12 03:29:29;;;;;;;6.43;2.60;;;20.70;1.00;;;;;;5115514;28;20701;-63
2023/09/12 03:31:56;;;;;;;3.57;2.50;;;20.60;1.00;;;;;;5116708;28;20709;-63
2023/09/12 03:34:24;;;;;;;3.03;1.90;;;20.50;1.00;;;;;;5116849;28;20942;-62
2023/09/12 03:36:51;;;;;;;4.50;2.43;;;20.40;1.00;;;;;;5117925;28;20412;-61
2023/09/12 03:39:18;;;;;;;4.63;2.97;;;20.30;1.00;;;;;;5115489;28;20866;-62
2023/09/12 03:41:45;;;;;;;3.28;2.30;;;20.20;1.00;;;;;;5116601;28;20800;-62
2023/09/12 03:44:12;;;;;;;3.90;2.88;;;20.20;1.00;;;;;;5115079;28;20432;-62
2023/09/12 03:46:41;;;;;;;4.85;2.05;;;20.10;1.00;;;;;;5115982;28;20430;-62
2023/09/12 03:49:08;;;;;;;5.38;1.92;;;20.10;1.00;;;;;;5113930;28;20430;-62
2023/09/12 03:51:37;;;;;;;3.57;2.00;;;20.10;1.00;;;;;;5114188;28;20515;-62
2023/09/12 03:54:05;;;;;;;5.28;2.58;;;20.30;1.00;;;;;;5114342;28;20429;-62
2023/09/12 03:56:32;;;;;;;5.97;2.00;;;20.30;1.00;;;;;;5115054;28;20514;-61
2023/09/12 03:58:59;;;;;;;4.93;2.10;;;20.30;1.00;;;;;;5104500;28;20425;-62
2023/09/12 04:01:27;;;;;;;3.53;2.35;;;20.40;1.00;;;;;;5113056;28;20427;-61
2023/09/12 04:03:55;;;;;;;4.45;2.25;;;20.40;1.00;;;;;;5111626;28;20851;-62
2023/09/12 04:06:22;;;;;;;3.13;2.00;;;20.30;1.00;;;;;;5112881;28;20423;-62
2023/09/12 04:08:50;;;;;;;4.03;1.55;;;20.30;1.00;;;;;;5113150;28;20428;-62
2023/09/12 04:11:17;;;;;;;3.15;2.30;;;20.40;1.00;;;;;;5113376;28;20713;-63
2023/09/12 04:13:44;;;;;;;3.58;2.40;;;20.50;1.00;;;;;;5115169;28;20416;-62
2023/09/12 04:16:12;;;;;;;3.50;1.80;;;20.50;1.00;;;;;;5114663;28;20423;-61
2023/09/12 04:18:40;;;;;;;2.80;2.10;;;20.40;1.00;;;;;;5116124;28;20507;-62
2023/09/12 04:21:08;;;;;;;4.47;2.00;;;20.40;1.00;;;;;;5115489;28;20435;-62
2023/09/12 04:23:36;;;;;;;3.08;2.10;;;20.40;1.00;;;;;;5114219;28;20428;-61
2023/09/12 04:26:03;;;;;;;4.40;2.10;;;20.40;1.00;;;;;;5113744;28;21140;-60
2023/09/12 04:28:30;;;;;;;3.92;1.75;;;20.30;1.00;;;;;;5094983;28;20431;-63
2023/09/12 04:31:03;;;;;;;3.38;1.83;;;20.30;1.00;;;;;;5111812;28;20902;-63
2023/09/12 04:33:30;;;;;;;5.88;2.20;;;20.30;1.00;;;;;;5111666;28;20423;-62
2023/09/12 04:36:02;;;;;;;3.47;2.47;;;20.30;1.00;;;;;;5112029;28;20436;-62
2023/09/12 04:38:32;;;;;;;3.92;2.10;;;20.30;1.00;;;;;;5114874;28;20477;-63
2023/09/12 04:41:04;;;;;;;4.30;2.72;;;20.20;1.00;;;;;;5113367;28;20432;-61
2023/09/12 04:43:32;;;;;;;3.70;2.60;;;20.20;1.00;;;;;;5114397;28;20866;-61
2023/09/12 04:45:59;;;;;;;3.10;2.00;;;20.20;1.00;;;;;;5113446;28;20419;-61
2023/09/12 04:48:26;;;;;;;3.85;1.98;;;20.20;1.00;;;;;;5113093;28;20642;-61
2023/09/12 04:50:53;;;;;;;4.90;2.60;;;20.10;1.00;;;;;;5114737;28;20511;-61
2023/09/12 04:53:20;;;;;;;4.20;2.30;;;20.10;1.00;;;;;;5115946;28;20420;-60
2023/09/12 04:55:49;;;;;;;3.58;2.10;;;20.20;1.00;;;;;;5115229;28;20499;-61
2023/09/12 04:58:16;;;;;;;4.63;2.08;;;20.20;1.00;;;;;;5113123;28;20415;-60
2023/09/12 05:00:43;;;;;;;4.07;2.50;;;20.30;1.00;;;;;;5112387;28;20434;-61
2023/09/12 05:03:10;;;;;;;3.00;2.33;;;20.30;1.00;;;;;;5114758;28;20427;-61
2023/09/12 05:05:37;;;;;;;3.53;2.50;;;20.30;1.00;;;;;;5112817;28;20471;-60
2023/09/12 05:08:05;;;;;;;4.13;2.47;;;20.30;1.00;;;;;;5112999;28;20424;-60
2023/09/12 05:10:33;;;;;;;6.20;2.45;;;20.40;1.00;;;;;;5114049;28;20870;-60
2023/09/12 05:13:01;;;;;;;3.17;2.53;;;20.40;1.00;;;;;;5113271;28;20412;-60
2023/09/12 05:15:28;;;;;;;3.10;2.40;;;20.40;1.00;;;;;;5113125;28;20412;-62
2023/09/12 05:17:56;;;;;;;6.20;2.95;;;20.50;1.00;;;;;;5113887;28;20430;-60
2023/09/12 05:20:23;;;;;;;3.90;2.20;;;20.60;1.00;;;;;;5112988;28;20420;-60
2023/09/12 05:22:50;;;;;;;3.90;1.90;;;20.60;99.90;;;;;;5111737;28;20712;-61
2023/09/12 05:25:17;;;;;;;2.90;2.00;;;20.60;99.90;;;;;;5110039;28;20428;-61
2023/09/12 05:27:45;;;;;;;4.35;2.10;;;20.70;99.90;;;;;;5110569;28;20564;-61
2023/09/12 05:30:14;;;;;;;4.57;2.50;;;20.70;99.90;;;;;;5112623;28;20450;-62
2023/09/12 05:32:42;;;;;;;3.45;2.40;;;20.70;99.90;;;;;;5112498;28;20424;-63
2023/09/12 05:35:09;;;;;;;4.70;2.45;;;20.70;99.90;;;;;;5112322;28;20490;-63
2023/09/12 05:37:36;;;;;;;4.43;2.47;;;20.70;99.90;;;;;;5112530;28;20506;-63
2023/09/12 05:40:05;;;;;;;3.07;1.80;;;20.70;99.90;;;;;;5112585;28;20500;-61
2023/09/12 05:42:33;;;;;;;4.80;2.90;;;20.80;99.90;;;;;;5112121;28;20439;-61
2023/09/12 05:45:00;;;;;;;4.70;2.50;;;20.90;99.90;;;;;;5110836;28;20564;-62
2023/09/12 05:47:29;;;;;;;2.83;2.03;;;21.00;99.90;;;;;;5111293;28;20461;-63
2023/09/12 05:49:58;;;;;;;3.22;2.45;;;21.10;99.90;;;;;;5112053;28;20420;-63
2023/09/12 05:52:26;;;;;;;4.25;2.92;;;21.20;99.90;;;;;;5111487;28;20959;-62
2023/09/12 05:54:53;;;;;;;4.22;2.15;;;21.40;1.00;;;;;;5110007;28;20396;-61
2023/09/12 05:57:20;;;;;;;4.43;2.92;;;21.40;1.00;;;;;;5108871;28;20708;-62
2023/09/12 05:59:48;;;;;;;4.03;2.60;;;21.40;1.00;;;;;;5107911;28;20416;-61
2023/09/12 06:02:15;;;;;;;4.28;2.45;;;21.50;1.00;;;;;;5108016;28;20505;-62
2023/09/12 06:04:44;;;;;;;8.65;2.30;;;21.70;99.90;;;;;;5107538;28;20428;-63
2023/09/12 06:07:11;;;;;;;4.70;1.85;;;21.80;99.90;;;;;;5107805;28;20587;-61
2023/09/12 06:09:38;;;;;;;2.38;2.17;;;21.80;1.00;;;;;;5107944;28;20428;-62
2023/09/12 06:12:06;;;;;;;3.28;1.90;;;21.80;43.00;;;;;;5107946;28;20431;-62
2023/09/12 06:14:33;;;;;;;4.88;2.20;;;21.70;80.10;;;;;;5109341;28;20510;-62
2023/09/12 06:17:01;;;;;;;3.08;2.45;;;21.70;99.90;;;;;;5110439;28;20420;-61
2023/09/12 06:19:28;;;;;;;4.90;2.75;;;21.60;99.90;;;;;;5110811;28;20416;-61
2023/09/12 06:21:58;;;;;;;3.83;1.80;;;21.60;1.00;;;;;;5110854;28;20815;-62
2023/09/12 06:24:25;;;;;;;3.50;2.45;;;21.60;1.00;;;;;;5111544;28;20771;-64
2023/09/12 06:26:53;;;;;;;3.13;2.10;;;21.70;1.00;;;;;;5111618;28;20442;-63
2023/09/12 06:29:20;;;;;;;4.30;2.40;;;21.80;1.00;;;;;;5110377;28;20740;-64
2023/09/12 06:31:47;;;;;;;2.60;2.17;;;22.00;99.90;;;;;;5108556;28;20447;-62
2023/09/12 06:34:15;;;;;;;3.08;2.00;;;22.20;1.00;;;;;;5109342;28;20959;-61
2023/09/12 06:36:44;;;;;;;2.60;2.30;;;22.30;1.00;;;;;;5108530;28;20434;-63
2023/09/12 06:39:13;;;;;;;3.97;2.53;;;22.40;99.90;;;;;;5108439;28;20527;-62
2023/09/12 06:41:40;;;;;;;5.00;2.40;;;22.40;1.00;;;;;;5110460;28;20519;-61
2023/09/12 06:44:08;;;;;;;5.90;2.20;;;22.40;16.80;;;;;;5111616;28;20422;-61
2023/09/12 06:46:37;;;;;;;4.50;2.47;;;22.40;99.90;;;;;;5110288;28;20424;-61
2023/09/12 06:49:04;;;;;;;5.03;3.15;;;22.50;85.70;;;;;;5110493;28;20456;-62
2023/09/12 06:51:31;;;;;;;4.60;2.60;;;22.60;1.00;;;;;;5107974;28;20411;-63
2023/09/12 06:53:59;;;;;;;4.60;2.70;;;22.70;1.00;;;;;;5110955;28;20499;-61
2023/09/12 06:56:28;;;;;;;4.32;2.67;;;22.70;1.00;;;;;;5112856;28;20575;-61
2023/09/12 06:58:55;;;;;;;4.47;3.42;;;22.60;1.00;;;;;;5112847;28;20731;-61
2023/09/12 07:01:23;;;;;;;7.40;3.38;;;22.60;99.90;;;;;;5112553;28;20408;-61
2023/09/12 07:03:53;;;;;;;6.20;3.03;;;22.60;99.90;;;;;;5113320;28;20412;-62
2023/09/12 07:06:20;;;;;;;5.93;3.22;;;22.70;99.90;;;;;;5113799;28;20882;-62
2023/09/12 07:08:48;;;;;;;5.40;3.60;;;22.70;1.00;;;;;;5113731;28;20528;-60
2023/09/12 07:11:15;;;;;;;5.88;2.92;;;22.80;1.00;;;;;;5114530;28;20430;-60
2023/09/12 07:13:44;;;;;;;6.47;2.78;;;22.60;1.00;;;;;;5112590;28;20738;-60
2023/09/12 07:16:11;;;;;;;5.53;3.00;;;22.70;1.00;;;;;;5113441;28;20812;-60
2023/09/12 07:18:39;;;;;;;5.00;3.40;;;22.70;1.00;;;;;;5114413;28;20431;-59
2023/09/12 07:21:07;;;;;;;5.15;3.40;;;22.70;1.00;;;;;;5115046;28;20455;-60
2023/09/12 07:23:34;;;;;;;5.53;3.30;;;22.60;2.80;;;;;;5114760;28;20423;-59
2023/09/12 07:26:02;;;;;;;3.60;2.50;;;22.50;99.90;;;;;;5114483;28;20436;-60
2023/09/12 07:28:31;;;;;;;4.80;2.53;;;22.60;99.90;;;;;;5114411;28;20427;-59
2023/09/12 07:31:00;;;;;;;4.00;2.63;;;22.80;43.20;;;;;;5115265;28;20507;-60
2023/09/12 07:33:27;;;;;;;3.08;2.83;;;23.00;1.00;;;;;;5115593;28;20428;-62
2023/09/12 07:35:55;;;;;;;5.27;3.27;;;23.30;39.50;;;;;;5114607;28;20426;-60
2023/09/12 07:38:22;;;;;;;3.43;2.93;;;23.30;1.00;;;;;;5114054;28;20696;-60
2023/09/12 07:40:50;;;;;;;8.52;4.22;;;23.20;1.00;;;;;;5112839;28;20427;-60
2023/09/12 07:43:17;;;;;;;6.30;4.05;;;23.00;1.00;;;;;;5111626;28;20877;-59
2023/09/12 07:45:44;;;;;;;8.93;4.30;;;22.90;23.20;;;;;;5112643;28;20596;-60
2023/09/12 07:48:13;;;;;;;4.35;3.95;;;23.00;74.90;;;;;;5111137;28;20423;-60
2023/09/12 07:50:40;;;;;;;4.38;2.83;;;23.10;99.90;;;;;;5114093;28;20423;-60
2023/09/12 07:53:08;;;;;;;3.60;3.22;;;23.20;50.50;;;;;;5111341;28;20428;-61
2023/09/12 07:55:45;;;;;;;4.87;3.00;;;23.40;1.00;;;;;;5111464;28;20798;-61
2023/09/12 07:58:12;;;;;;;5.22;3.05;;;23.50;1.00;;;;;;5111728;28;20766;-61
2023/09/12 08:00:40;;;;;;;5.23;2.90;;;23.70;99.90;;;;;;5111590;28;20423;-61
2023/09/12 08:03:07;;;;;;;5.90;3.63;;;23.90;39.20;;;;;;5114600;28;20511;-62
2023/09/12 08:05:36;;;;;;;3.97;2.90;;;24.00;1.00;;;;;;5113089;28;20531;-61
2023/09/12 08:08:03;;;;;;;4.13;2.70;;;24.20;1.00;;;;;;5114967;28;20506;-62
2023/09/12 08:10:31;;;;;;;6.07;3.08;;;24.30;1.00;;;;;;5112686;28;20839;-61
2023/09/12 08:12:58;;;;;;;4.30;3.15;;;24.40;99.90;;;;;;5113982;28;20831;-61
2023/09/12 08:15:25;;;;;;;3.30;2.80;;;24.50;99.90;;;;;;5113983;28;20523;-61
2023/09/12 08:17:55;;;;;;;5.30;2.33;;;24.70;99.90;;;;;;5113095;28;20418;-61
2023/09/12 08:20:22;;;;;;;5.10;2.25;;;24.80;72.30;;;;;;5113342;28;20506;-61
2023/09/12 08:22:51;;;;;;;3.92;2.33;;;24.90;1.00;;;;;;5111108;28;20456;-61
2023/09/12 08:25:18;;;;;;;3.50;2.70;;;24.80;1.00;;;;;;5111784;28;20926;-60
2023/09/12 08:27:45;;;;;;;16.45;4.53;;;24.80;1.00;;;;;;5111088;28;20740;-61
2023/09/12 08:30:14;;;;;;;4.40;2.75;;;25.00;1.00;;;;;;5112921;28;20442;-60
2023/09/12 08:32:43;;;;;;;3.67;2.60;;;25.00;1.00;;;;;;5109767;27;20432;-60
2023/09/12 08:35:12;;;;;;;3.20;2.90;;;25.10;1.00;;;;;;5113141;27;20475;-60
2023/09/12 08:37:40;;;;;;;5.47;2.75;;;25.10;1.00;;;;;;5130177;27;20867;-62
2023/09/12 08:40:11;;;;;;;5.10;2.70;;;25.20;1.00;;;;;;5122847;27;20882;-61
2023/09/12 08:42:41;;;;;;;6.47;2.80;;;25.30;1.00;;;;;;5111883;28;20416;-62
2023/09/12 08:45:13;;;;;;;4.82;3.35;;;25.50;1.00;;;;;;5110028;28;20447;-62
2023/09/12 08:47:42;;;;;;;5.27;3.90;;;25.70;1.00;;;;;;5112457;28;20428;-63
2023/09/12 08:50:12;;;;;;;4.55;2.22;;;25.70;1.00;;;;;;5110533;28;20438;-62
2023/09/12 08:52:40;;;;;;;4.40;2.47;;;25.80;1.00;;;;;;5100763;28;20430;-63
2023/09/12 08:55:09;;;;;;;4.82;3.17;;;25.90;1.00;;;;;;5093852;28;20489;-62
2023/09/12 08:57:39;;;;;;;5.75;3.38;;;26.00;1.00;;;;;;5093873;28;20457;-64
2023/09/12 09:00:08;;;;;;;4.70;3.30;;;26.00;99.90;;;;;;5091112;28;20857;-64
2023/09/12 09:02:36;;;;;;;3.83;2.28;;;25.90;99.90;;;;;;5090598;28;20490;-63
2023/09/12 09:05:06;;;;;;;3.65;2.55;;;25.80;99.90;;;;;;5090836;28;20535;-63
2023/09/12 09:07:34;;;;;;;5.55;3.22;;;25.80;99.90;;;;;;5092210;28;20414;-59
2023/09/12 09:10:04;;;;;;;4.25;2.97;;;25.90;99.90;;;;;;5092368;28;20413;-59
2023/09/12 09:12:34;;;;;;;4.22;3.20;;;26.00;99.90;;;;;;5093307;28;20420;-59
2023/09/12 09:15:22;;;;;;;5.15;3.53;;;26.10;99.90;;;;;;5104978;28;20432;-60
2023/09/12 09:17:50;;;;;;;3.80;2.50;;;26.20;99.90;;;;;;5104444;28;20432;-60
2023/09/12 09:20:29;;;;;;;4.75;3.80;;;26.20;99.90;;;;;;5098201;28;20865;-60
2023/09/12 09:23:01;;;;;;;4.18;3.15;;;26.30;99.90;;;;;;5104867;28;20432;-62
2023/09/12 09:25:28;;;;;;;4.72;3.10;;;26.40;99.90;;;;;;5092254;28;20496;-59
2023/09/12 09:27:57;;;;;;;4.18;2.97;;;26.50;99.90;;;;;;5093311;28;20700;-59
2023/09/12 09:30:41;;;;;;;4.32;2.60;;;26.60;99.90;;;;;;5091781;28;20508;-59
2023/09/12 09:33:09;;;;;;;3.22;2.85;;;26.70;99.90;;;;;;5090520;28;20852;-61
2023/09/12 09:35:36;;;;;;;3.50;2.72;;;26.70;99.90;;;;;;5089769;28;20417;-61
2023/09/12 09:38:07;;;;;;;3.30;2.70;;;26.80;99.90;;;;;;5090728;28;20741;-61
2023/09/12 09:40:35;;;;;;;4.00;2.60;;;26.80;99.90;;;;;;5090908;28;20825;-60
2023/09/12 09:43:05;;;;;;;3.88;2.58;;;27.00;99.90;;;;;;5090352;28;20807;-61
2023/09/12 09:45:32;;;;;;;4.13;2.97;;;27.10;99.90;;;;;;5083358;28;20917;-61
2023/09/12 09:48:07;;;;;;;4.45;3.38;;;27.30;99.90;;;;;;5091344;28;20942;-60
2023/09/12 09:50:36;;;;;;;5.10;2.65;;;27.40;99.90;;;;;;5091242;28;20433;-61
2023/09/12 09:53:08;;;;;;;4.30;2.40;;;27.50;99.90;;;;;;5090752;28;20422;-61
2023/09/12 09:55:35;;;;;;;3.77;3.30;;;27.60;99.90;;;;;;5096352;28;20432;-61
2023/09/12 09:58:06;;;;;;;4.30;2.20;;;27.80;99.90;;;;;;5112753;27;20755;-60
2023/09/12 10:00:35;;;;;;;3.75;3.30;;;28.10;99.90;;;;;;5112705;28;20936;-60
2023/09/12 10:03:05;;;;;;;3.97;2.53;;;28.30;99.90;;;;;;5112699;28;20798;-60
2023/09/12 10:05:33;;;;;;;4.03;2.10;;;28.40;55.60;;;;;;5113905;28;20526;-60
2023/09/12 10:08:02;;;;;;;4.43;2.80;;;28.50;29.30;;;;;;5110811;28;20859;-61
2023/09/12 10:10:30;;;;;;;3.47;2.67;;;28.70;13.20;;;;;;5110446;28;20734;-62
2023/09/12 10:12:59;;;;;;;3.65;2.47;;;28.80;1.00;;;;;;5108970;28;20420;-62
2023/09/12 10:15:31;;;;;;;3.42;2.20;;;29.00;1.00;;;;;;5110123;28;20427;-62
2023/09/12 10:18:00;;;;;;;3.10;2.30;;;29.30;1.00;;;;;;5109306;28;20747;-61
2023/09/12 10:20:36;;;;;;;7.75;2.90;;;29.40;1.00;;;;;;5111082;28;20791;-62
2023/09/12 10:23:11;;;;;;;9.57;3.35;;;29.60;1.00;;;;;;5108275;28;20882;-62
2023/09/12 10:25:39;;;;;;;3.38;2.75;;;29.90;1.00;;;;;;5111341;28;20435;-61
2023/09/12 10:28:09;;;;;;;3.70;2.28;;;30.10;1.00;;;;;;5111589;28;20432;-61
2023/09/12 10:30:38;;;;;;;3.83;3.42;;;30.30;1.00;;;;;;5114380;28;20473;-60
2023/09/12 10:33:06;;;;;;;4.28;3.60;;;30.50;1.00;;;;;;5111387;28;20764;-60
2023/09/12 10:35:35;;;;;;;3.20;2.20;;;30.50;1.00;;;;;;5112561;28;20419;-62
2023/09/12 10:38:04;;;;;;;3.90;2.40;;;30.70;1.00;;;;;;5113440;28;20858;-60
2023/09/12 10:40:33;;;;;;;8.52;3.63;;;30.70;1.00;;;;;;5112124;28;20953;-61
2023/09/12 10:43:03;;;;;;;2.55;2.10;;;30.70;1.00;;;;;;5111589;28;20466;-61
2023/09/12 10:45:34;;;;;;;4.28;2.65;;;30.90;1.00;;;;;;5112736;28;20510;-60
2023/09/12 10:48:03;;;;;;;8.68;3.40;;;31.00;1.00;;;;;;5114580;28;20423;-60
2023/09/12 10:50:30;;;;;;;4.35;3.03;;;31.20;1.00;;;;;;5114304;28;20527;-60
2023/09/12 10:53:08;;;;;;;3.72;2.30;;;31.20;1.00;;;;;;5114106;28;20698;-60
2023/09/12 10:55:36;;;;;;;3.00;2.55;;;31.20;1.00;;;;;;5115325;28;20705;-60
2023/09/12 10:58:05;;;;;;;3.58;2.20;;;31.00;1.00;;;;;;5115709;28;20444;-60
2023/09/12 11:00:32;;;;;;;5.40;2.63;;;31.00;1.00;;;;;;5115605;28;20489;-60
2023/09/12 11:03:00;;;;;;;2.70;1.80;;;31.10;1.00;;;;;;5115170;28;20424;-61
2023/09/12 11:05:52;;;;;;;4.88;2.70;;;31.20;1.00;;;;;;5116073;28;20420;-60
2023/09/12 11:08:19;;;;;;;4.30;2.20;;;31.30;1.00;;;;;;5115536;28;20743;-63
2023/09/12 11:11:06;;;;;;;4.07;2.40;;;31.40;1.00;;;;;;5114759;28;20805;-61
2023/09/12 11:13:40;;;;;;;2.80;2.10;;;31.50;1.00;;;;;;5113255;28;20857;-63
2023/09/12 11:16:12;;;;;;;4.10;3.28;;;31.50;1.00;;;;;;5114837;28;20412;-62
2023/09/12 11:19:14;;;;;;;2.50;1.73;;;31.60;1.00;;;;;;5114458;28;20772;-62
2023/09/12 11:21:43;;;;;;;4.72;2.70;;;31.30;1.00;;;;;;5113839;28;20637;-63
2023/09/12 11:24:11;;;;;;;2.67;2.15;;;31.40;1.00;;;;;;5112760;28;20538;-65
2023/09/12 11:26:57;;;;;;;2.70;1.90;;;31.60;1.00;;;;;;5113448;28;20495;-65
2023/09/12 11:29:28;;;;;;;3.90;2.47;;;31.60;1.00;;;;;;5114921;28;20870;-65
2023/09/12 11:31:58;;;;;;;2.70;2.00;;;31.80;1.00;;;;;;5114391;28;20448;-62
2023/09/12 11:34:31;;;;;;;5.03;2.20;;;31.50;1.00;;;;;;5113345;28;20427;-61
2023/09/12 11:37:03;;;;;;;2.80;2.28;;;31.70;1.00;;;;;;5114687;28;20416;-62
2023/09/12 11:39:31;;;;;;;3.35;2.30;;;31.70;1.00;;;;;;5112558;28;20416;-60
2023/09/12 11:41:59;;;;;;;3.45;2.25;;;32.00;1.00;;;;;;5112395;28;20511;-60
2023/09/12 11:44:27;;;;;;;8.32;2.67;;;32.30;1.00;;;;;;5113735;28;20416;-60
2023/09/12 11:46:55;;;;;;;5.25;2.10;;;32.60;1.00;;;;;;5114465;28;20440;-60
2023/09/12 11:49:22;;;;;;;3.80;2.60;;;32.70;1.00;;;;;;5109667;28;20440;-59
2023/09/12 11:51:51;;;;;;;2.95;2.53;;;32.50;1.00;;;;;;5112466;28;20865;-62
2023/09/12 11:54:21;;;;;;;3.10;1.90;;;32.60;1.00;;;;;;5111321;28;20454;-62
2023/09/12 11:56:56;;;;;;;7.68;2.65;;;32.60;1.00;;;;;;5109409;28;20454;-62
2023/09/12 11:59:23;;;;;;;3.10;2.00;;;32.60;1.00;;;;;;5113352;28;20752;-61
2023/09/12 12:01:51;;;;;;;3.08;1.67;;;32.70;1.00;;;;;;5111533;28;20546;-61
2023/09/12 12:04:19;;;;;;;4.20;2.00;;;32.90;1.00;;;;;;5113642;28;20507;-61
2023/09/12 12:06:46;;;;;;;3.37;2.50;;;33.00;1.00;;;;;;5109671;28;20435;-61
2023/09/12 12:09:14;;;;;;;4.00;2.03;;;33.10;1.00;;;;;;5111504;28;20784;-62
2023/09/12 12:11:43;;;;;;;4.47;2.08;;;33.40;1.00;;;;;;5110815;28;20508;-61
2023/09/12 12:14:15;;;;;;;3.88;1.80;;;33.60;1.00;;;;;;5130491;27;20916;-62
2023/09/12 12:16:43;;;;;;;3.30;2.20;;;33.60;1.00;;;;;;5131688;27;20475;-62
2023/09/12 12:19:11;;;;;;;3.30;2.17;;;33.60;1.00;;;;;;5130382;27;20484;-61
2023/09/12 12:21:38;;;;;;;2.13;1.70;;;33.20;1.00;;;;;;5133305;27;20418;-62
2023/09/12 12:24:08;;;;;;;3.60;1.90;;;33.10;1.00;;;;;;5131315;27;20793;-62
2023/09/12 12:26:35;;;;;;;3.80;2.00;;;32.80;1.00;;;;;;5132009;27;20857;-62
2023/09/12 12:29:04;;;;;;;1.80;1.60;;;32.80;1.00;;;;;;5133427;27;20426;-60
2023/09/12 12:31:32;;;;;;;3.58;1.60;;;32.70;1.00;;;;;;5131731;27;20418;-60
2023/09/12 12:34:00;;;;;;;2.63;1.80;;;32.90;1.00;;;;;;5131402;27;20757;-61
2023/09/12 12:36:27;;;;;;;3.05;1.88;;;33.20;1.00;;;;;;5132520;27;20464;-60
2023/09/12 12:38:55;;;;;;;2.90;1.67;;;33.50;1.00;;;;;;5132540;27;20479;-59
2023/09/12 12:41:26;;;;;;;3.10;1.70;;;33.20;1.00;;;;;;5134357;27;20430;-60
2023/09/12 12:43:54;;;;;;;3.60;2.00;;;33.20;1.00;;;;;;5132404;27;20410;-61
2023/09/12 12:46:23;;;;;;;3.00;1.83;;;33.20;1.00;;;;;;5130599;27;20498;-60
2023/09/12 12:48:50;;;;;;;3.55;1.95;;;33.30;1.00;;;;;;5130496;27;20467;-61
2023/09/12 12:51:19;;;;;;;2.50;1.70;;;32.60;1.00;;;;;;5132069;27;20846;-64
2023/09/12 12:53:47;;;;;;;1.87;1.60;;;32.40;1.00;;;;;;5115675;27;20523;-61
2023/09/12 12:56:16;;;;;;;2.75;1.80;;;32.50;1.00;;;;;;5113784;28;20506;-61
2023/09/12 12:58:51;;;;;;;3.42;1.60;;;33.00;1.00;;;;;;5112891;28;20430;-61
2023/09/12 13:01:19;;;;;;;2.10;1.40;;;33.20;1.00;;;;;;5112227;28;20417;-61